Hooven, Ohio
Current Conditions -  °F | °C
As of 7:35 PM on Monday 24 Nov 2014 (Local Time) from KI67 Reporting Station
Overcast Overcast  
Wind Chill: 37°   Ceiling: 6000
Heat Index: 43°   Visibility: 10mi
Dew Point: 32°   Wind: 12mph
Humidity: 66%   Direction: 250°WSW
Pressure: 29.84"   Gusts: 16mph
Location:  39.18°N, 84.76°W
Report Text: KI67 250035Z AUTO 25010G14KT 10SM OVC060 06/00 A2984 RMK AO1
Loading
Personal Weather Stations






























Interactive Weather Map New forecast layout! Learn more

10-Day Weather Forecast

Advertisements
Track Severe Weather on mobile